createdAt,value
2023-05-14T00:00:59.786Z,56.42
2023-05-14T00:06:05.208Z,56.89
2023-05-14T00:11:09.162Z,57.27
2023-05-14T00:16:12.206Z,57.19
2023-05-14T00:21:14.954Z,57.54
2023-05-14T00:26:17.672Z,57.74
2023-05-14T00:31:20.427Z,57.96
2023-05-14T00:36:23.131Z,58.42
2023-05-14T00:41:25.822Z,58.54
2023-05-14T00:46:28.743Z,58.64
2023-05-14T00:51:31.562Z,58.77
2023-05-14T00:56:35.305Z,58.93
2023-05-14T01:01:37.860Z,59.40
2023-05-14T01:07:10.846Z,59.59
2023-05-14T01:12:34.719Z,59.83
2023-05-14T01:17:45.232Z,60.13
2023-05-14T01:22:47.804Z,60.35
2023-05-14T01:28:02.125Z,60.46
2023-05-14T01:33:16.554Z,61.01
2023-05-14T01:38:21.590Z,61.24
2023-05-14T01:43:24.514Z,61.35
2023-05-14T01:48:27.211Z,61.81
2023-05-14T01:53:29.842Z,61.99
2023-05-14T01:58:32.412Z,61.94
2023-05-14T02:03:35.070Z,62.21
2023-05-14T02:08:37.676Z,62.44
2023-05-14T02:13:40.230Z,62.59
2023-05-14T02:18:42.862Z,62.70
2023-05-14T02:23:45.520Z,62.72
2023-05-14T02:28:48.244Z,62.76
2023-05-14T02:33:50.851Z,63.01
2023-05-14T02:38:53.443Z,63.28
2023-05-14T02:43:56.051Z,63.43
2023-05-14T02:48:58.988Z,63.75
2023-05-14T02:54:01.785Z,63.80
2023-05-14T02:59:04.811Z,63.92
2023-05-14T03:04:07.984Z,64.07
2023-05-14T03:09:10.791Z,64.19
2023-05-14T03:14:13.412Z,64.07
2023-05-14T03:19:16.030Z,64.25
2023-05-14T03:24:18.717Z,65.12
2023-05-14T03:29:21.332Z,64.87
2023-05-14T03:34:24.301Z,64.01
2023-05-14T03:39:26.897Z,63.24
2023-05-14T03:44:29.527Z,62.40
2023-05-14T03:49:32.108Z,61.38
2023-05-14T03:54:34.767Z,60.60
2023-05-14T03:59:37.365Z,59.56
2023-05-14T04:04:41.121Z,58.65
2023-05-14T04:09:43.882Z,57.29
2023-05-14T04:14:46.530Z,56.31
2023-05-14T04:19:49.121Z,55.42
2023-05-14T04:24:52.464Z,54.48
2023-05-14T04:29:55.051Z,53.44
2023-05-14T04:34:57.744Z,52.01
2023-05-14T04:40:00.406Z,50.74
2023-05-14T04:45:05.276Z,49.72
2023-05-14T04:50:09.834Z,48.71
2023-05-14T04:55:12.426Z,47.71
2023-05-14T05:00:17.432Z,46.78
2023-05-14T05:05:20.703Z,45.72
2023-05-14T05:10:24.133Z,44.90
2023-05-14T05:15:27.508Z,44.21
2023-05-14T05:20:30.142Z,43.22
2023-05-14T05:25:32.934Z,42.67
2023-05-14T05:30:35.841Z,41.24
2023-05-14T05:35:38.513Z,40.29
2023-05-14T05:40:41.265Z,39.32
2023-05-14T05:45:44.220Z,39.07
2023-05-14T05:50:49.697Z,37.75
2023-05-14T05:55:52.446Z,37.56
2023-05-14T06:00:55.625Z,36.94
2023-05-14T06:05:58.208Z,36.31
2023-05-14T06:11:00.767Z,35.50
2023-05-14T06:16:03.596Z,35.06
2023-05-14T06:21:06.506Z,34.47
2023-05-14T06:26:09.047Z,34.11
2023-05-14T06:31:11.733Z,33.39
2023-05-14T06:36:14.364Z,32.94
2023-05-14T06:41:17.109Z,32.42
2023-05-14T06:46:19.684Z,32.11
2023-05-14T06:51:22.239Z,31.51
2023-05-14T06:56:24.916Z,31.18
2023-05-14T07:01:27.617Z,30.79
2023-05-14T07:06:30.860Z,30.08
2023-05-14T07:11:33.912Z,29.91
2023-05-14T07:16:37.094Z,29.42
2023-05-14T07:21:39.803Z,28.45
2023-05-14T07:26:42.428Z,27.33
2023-05-14T07:31:45.278Z,27.63
2023-05-14T07:36:48.226Z,27.41
2023-05-14T07:41:51.434Z,26.91
2023-05-14T07:46:54.097Z,26.31
2023-05-14T07:51:56.773Z,25.70
2023-05-14T07:56:59.374Z,25.09
2023-05-14T08:02:02.265Z,24.33
2023-05-14T08:07:05.909Z,23.69
2023-05-14T08:12:08.890Z,22.81
2023-05-14T08:17:11.562Z,22.46
2023-05-14T08:22:14.317Z,22.17
2023-05-14T08:27:17.147Z,21.80
2023-05-14T08:32:23.327Z,22.13
2023-05-14T08:37:27.288Z,22.16
2023-05-14T08:42:31.393Z,21.79
2023-05-14T08:47:34.351Z,21.64
2023-05-14T08:52:37.937Z,21.34
2023-05-14T08:57:40.752Z,20.72
2023-05-14T09:02:46.551Z,21.07
2023-05-14T09:07:49.922Z,21.22
2023-05-14T09:12:52.569Z,20.97
2023-05-14T09:17:55.485Z,21.22
2023-05-14T09:23:02.732Z,20.54
2023-05-14T09:28:08.340Z,20.64
2023-05-14T09:33:11.114Z,20.72
2023-05-14T09:38:13.714Z,20.95
2023-05-14T09:43:16.315Z,20.91
2023-05-14T09:48:19.909Z,20.66
2023-05-14T09:53:22.724Z,20.37
2023-05-14T09:58:25.507Z,20.41
2023-05-14T10:03:30.964Z,20.26
2023-05-14T10:08:36.136Z,20.25
2023-05-14T10:13:46.316Z,20.17
2023-05-14T10:18:57.014Z,19.98
2023-05-14T10:24:00.710Z,19.49
2023-05-14T10:29:03.367Z,20.15
2023-05-14T10:34:38.515Z,20.52
2023-05-14T10:40:08.263Z,20.60
2023-05-14T10:45:13.874Z,20.60
2023-05-14T10:50:17.727Z,20.66
2023-05-14T10:55:21.778Z,20.61
2023-05-14T11:00:27.731Z,20.74
2023-05-14T11:05:31.692Z,20.84
2023-05-14T11:10:35.799Z,20.83
2023-05-14T11:15:45.426Z,20.99
2023-05-14T11:20:48.016Z,21.23
2023-05-14T11:25:53.185Z,21.26
2023-05-14T11:30:56.299Z,21.17
2023-05-14T11:35:58.885Z,21.33
2023-05-14T11:41:01.440Z,21.53
2023-05-14T11:46:04.439Z,21.74
2023-05-14T11:51:07.166Z,21.99
2023-05-14T11:56:10.097Z,22.76
2023-05-14T12:01:14.145Z,23.40
2023-05-14T12:06:18.188Z,23.86
2023-05-14T12:11:21.991Z,24.02
2023-05-14T12:16:32.572Z,24.01
2023-05-14T12:21:36.678Z,24.08
2023-05-14T12:26:48.512Z,23.65
2023-05-14T12:31:51.352Z,23.58
2023-05-14T12:36:54.129Z,23.69
2023-05-14T12:41:56.653Z,23.77
2023-05-14T12:46:59.344Z,23.94
2023-05-14T12:52:17.405Z,24.07
2023-05-14T12:57:25.484Z,24.25
2023-05-14T13:02:28.202Z,24.96
2023-05-14T13:07:31.646Z,24.71
2023-05-14T13:12:34.384Z,24.62
2023-05-14T13:17:37.153Z,24.60
2023-05-14T13:22:39.929Z,24.82
2023-05-14T13:27:42.534Z,24.91
2023-05-14T13:32:46.140Z,24.80
2023-05-14T13:37:48.783Z,24.73
2023-05-14T13:42:51.417Z,24.46
2023-05-14T13:47:53.984Z,24.35
2023-05-14T13:52:56.756Z,24.28
2023-05-14T13:58:02.376Z,24.24
2023-05-14T14:03:05.698Z,24.22
2023-05-14T14:08:22.771Z,24.19
2023-05-14T14:13:27.970Z,24.11
2023-05-14T14:18:30.672Z,24.09
2023-05-14T14:23:33.553Z,24.07
2023-05-14T14:28:36.351Z,23.94
2023-05-14T14:33:39.297Z,23.63
2023-05-14T14:38:41.971Z,23.47
2023-05-14T14:43:44.767Z,23.47
2023-05-14T14:48:47.414Z,23.55
2023-05-14T14:53:50.081Z,23.42
2023-05-14T14:58:52.708Z,23.06
2023-05-14T15:03:55.269Z,22.82
2023-05-14T15:08:57.854Z,22.63
2023-05-14T15:14:00.445Z,22.57
2023-05-14T15:19:03.088Z,22.44
2023-05-14T15:24:06.859Z,22.37
2023-05-14T15:29:09.471Z,22.50
2023-05-14T15:34:12.046Z,22.58
2023-05-14T15:39:14.753Z,22.65
2023-05-14T15:44:17.552Z,22.68
2023-05-14T15:49:20.346Z,22.67
2023-05-14T15:54:23.079Z,22.74
2023-05-14T15:59:25.700Z,22.87
2023-05-14T16:04:28.374Z,22.94
2023-05-14T16:09:32.124Z,23.07
2023-05-14T16:14:35.830Z,23.16
2023-05-14T16:19:39.732Z,23.25
2023-05-14T16:24:42.637Z,23.42
2023-05-14T16:29:45.492Z,23.55
2023-05-14T16:34:51.685Z,23.70
2023-05-14T16:39:54.978Z,23.92
2023-05-14T16:44:57.621Z,24.00
2023-05-14T16:50:00.224Z,24.05
2023-05-14T16:55:03.110Z,24.17
2023-05-14T17:00:07.815Z,24.26
2023-05-14T17:05:10.483Z,24.36
2023-05-14T17:10:13.158Z,24.55
2023-05-14T17:15:15.947Z,24.79
2023-05-14T17:20:18.804Z,24.94
2023-05-14T17:25:23.658Z,25.08
2023-05-14T17:30:26.604Z,25.20
2023-05-14T17:35:29.251Z,25.37
2023-05-14T17:40:31.963Z,25.56
2023-05-14T17:45:46.253Z,25.76
2023-05-14T17:50:55.635Z,25.95
2023-05-14T17:55:58.357Z,26.19
2023-05-14T18:01:02.373Z,26.41
2023-05-14T18:06:05.360Z,26.52
2023-05-14T18:11:08.022Z,26.62
2023-05-14T18:16:10.724Z,26.91
2023-05-14T18:21:13.490Z,27.14
2023-05-14T18:26:16.329Z,27.25
2023-05-14T18:31:19.020Z,27.44
2023-05-14T18:36:21.965Z,27.57
2023-05-14T18:41:24.893Z,28.05
2023-05-14T18:46:27.964Z,28.25
2023-05-14T18:51:30.816Z,28.50
2023-05-14T18:56:34.742Z,28.82
2023-05-14T19:01:37.341Z,29.24
2023-05-14T19:06:43.012Z,29.43
2023-05-14T19:11:45.630Z,29.57
2023-05-14T19:16:51.505Z,29.85
2023-05-14T19:21:54.352Z,30.18
2023-05-14T19:26:57.063Z,30.63
2023-05-14T19:31:59.804Z,31.10
2023-05-14T19:37:03.186Z,31.39
2023-05-14T19:42:06.494Z,31.39
2023-05-14T19:47:09.283Z,31.65
2023-05-14T19:52:11.976Z,31.59
2023-05-14T19:57:14.604Z,31.76
2023-05-14T20:02:18.599Z,32.34
2023-05-14T20:07:21.465Z,33.02
2023-05-14T20:12:24.051Z,33.50
2023-05-14T20:17:26.870Z,33.87
2023-05-14T20:22:29.499Z,34.36
2023-05-14T20:27:32.676Z,34.74
2023-05-14T20:32:35.585Z,35.01
2023-05-14T20:37:39.041Z,35.49
2023-05-14T20:42:41.621Z,36.13
2023-05-14T20:47:44.559Z,36.44
2023-05-14T20:52:47.320Z,36.94
2023-05-14T20:57:49.898Z,37.38
2023-05-14T21:02:53.082Z,37.81
2023-05-14T21:07:55.772Z,38.04
2023-05-14T21:12:58.385Z,38.39
2023-05-14T21:18:02.180Z,38.60
2023-05-14T21:23:04.984Z,39.08
2023-05-14T21:28:07.811Z,39.44
2023-05-14T21:33:10.401Z,39.88
2023-05-14T21:38:13.001Z,40.10
2023-05-14T21:43:15.646Z,40.37
2023-05-14T21:48:18.424Z,40.87
2023-05-14T21:53:21.130Z,41.15
2023-05-14T21:58:23.911Z,41.65
2023-05-14T22:03:26.719Z,42.04
2023-05-14T22:08:30.726Z,42.19
2023-05-14T22:13:35.071Z,42.22
2023-05-14T22:18:38.357Z,42.51
2023-05-14T22:23:41.074Z,42.57
2023-05-14T22:28:43.697Z,42.81
2023-05-14T22:33:46.358Z,43.12
2023-05-14T22:38:48.926Z,43.53
2023-05-14T22:43:51.697Z,43.65
2023-05-14T22:48:54.558Z,44.01
2023-05-14T22:53:57.715Z,44.46
2023-05-14T22:59:00.683Z,45.08
2023-05-14T23:04:03.386Z,45.65
2023-05-14T23:09:06.057Z,45.79
2023-05-14T23:14:09.057Z,45.78
2023-05-14T23:19:12.337Z,46.16
2023-05-14T23:24:15.411Z,46.22
2023-05-14T23:29:18.075Z,46.38
2023-05-14T23:34:22.124Z,46.73
2023-05-14T23:39:24.749Z,47.08
2023-05-14T23:44:27.486Z,47.40
2023-05-14T23:49:30.116Z,47.88
2023-05-14T23:54:32.735Z,48.10
2023-05-14T23:59:35.529Z,48.61
